Time;durP1;ratioP1;P1;durP2;ratioP2;P2;SDS_P1;SDS_P2;PMS_P1;PMS_P2;Temp;Humidity;BMP_temperature;BMP_pressure;BME280_temperature;BME280_humidity;BME280_pressure;Samples;Min_cycle;Max_cycle;Signal;HPM_P1;HPM_P2
2022/05/23 00:01:18;;;;;;;3.53;2.60;;;;;;;;;;5014085;28;20692;-58
2022/05/23 00:03:44;;;;;;;3.10;2.80;;;;;;;;;;5004810;28;20193;-59
2022/05/23 00:06:10;;;;;;;3.03;2.70;;;;;;;;;;5019820;28;20207;-58
2022/05/23 00:08:36;;;;;;;6.03;2.53;;;;;;;;;;4989965;28;20296;-59
2022/05/23 00:11:02;;;;;;;3.77;2.80;;;;;;;;;;5007603;28;20217;-59
2022/05/23 00:13:28;;;;;;;4.07;2.63;;;;;;;;;;5004674;28;20863;-59
2022/05/23 00:15:54;;;;;;;5.43;2.80;;;;;;;;;;4997479;28;20193;-58
2022/05/23 00:18:20;;;;;;;3.30;2.70;;;;;;;;;;4997689;28;20338;-58
2022/05/23 00:20:46;;;;;;;7.10;2.67;;;;;;;;;;5007733;28;20672;-59
2022/05/23 00:23:12;;;;;;;3.37;2.80;;;;;;;;;;4996087;28;20309;-59
2022/05/23 00:25:38;;;;;;;3.97;2.77;;;;;;;;;;5007264;28;20707;-59
2022/05/23 00:28:04;;;;;;;3.63;3.07;;;;;;;;;;5015492;28;20257;-59
2022/05/23 00:30:30;;;;;;;2.87;2.67;;;;;;;;;;5006828;28;20181;-59
2022/05/23 00:35:45;;;;;;;3.80;2.83;;;;;;;;;;5015190;28;20603;-59
2022/05/23 00:38:11;;;;;;;3.47;2.67;;;;;;;;;;4997161;28;20213;-59
2022/05/23 00:40:42;;;;;;;3.10;2.77;;;;;;;;;;5012779;28;20325;-60
2022/05/23 00:43:21;;;;;;;4.50;2.60;;;;;;;;;;5016511;28;20603;-59
2022/05/23 00:45:54;;;;;;;3.40;2.77;;;;;;;;;;5011402;28;20186;-59
2022/05/23 00:48:21;;;;;;;3.40;2.93;;;;;;;;;;5007978;28;20200;-60
2022/05/23 00:50:49;;;;;;;5.13;2.90;;;;;;;;;;5006417;28;20177;-59
2022/05/23 00:53:15;;;;;;;4.13;2.70;;;;;;;;;;5015318;28;20181;-58
2022/05/23 00:55:47;;;;;;;3.20;2.90;;;;;;;;;;5013779;28;20768;-58
2022/05/23 00:58:13;;;;;;;2.80;2.57;;;;;;;;;;5009586;28;20580;-58
2022/05/23 01:00:39;;;;;;;4.17;2.70;;;;;;;;;;5006106;28;20651;-58
2022/05/23 01:03:07;;;;;;;2.97;2.53;;;;;;;;;;5015775;28;20193;-59
2022/05/23 01:05:34;;;;;;;2.93;2.70;;;;;;;;;;4992208;28;20199;-58
2022/05/23 01:08:00;;;;;;;3.03;2.70;;;;;;;;;;4982936;28;20186;-59
2022/05/23 01:10:26;;;;;;;3.20;2.80;;;;;;;;;;4994792;28;20525;-59
2022/05/23 01:12:52;;;;;;;3.43;2.70;;;;;;;;;;5005120;28;20268;-60
2022/05/23 01:15:19;;;;;;;5.00;2.87;;;;;;;;;;5010813;28;20614;-58
2022/05/23 01:17:45;;;;;;;2.83;2.63;;;;;;;;;;5011628;28;21756;-58
2022/05/23 01:20:11;;;;;;;3.10;2.80;;;;;;;;;;5015093;28;20200;-59
2022/05/23 01:22:41;;;;;;;3.10;2.80;;;;;;;;;;5018151;28;20236;-59
2022/05/23 01:25:19;;;;;;;4.40;2.63;;;;;;;;;;5017786;28;20264;-59
2022/05/23 01:27:46;;;;;;;3.07;2.73;;;;;;;;;;5015852;28;20212;-58
2022/05/23 01:30:12;;;;;;;3.40;2.50;;;;;;;;;;5004272;28;20189;-59
2022/05/23 01:32:38;;;;;;;7.03;2.80;;;;;;;;;;5012246;28;20188;-60
2022/05/23 01:35:08;;;;;;;4.33;2.93;;;;;;;;;;5009303;28;20189;-58
2022/05/23 01:37:34;;;;;;;3.57;2.87;;;;;;;;;;5009553;28;20213;-59
2022/05/23 01:40:00;;;;;;;4.40;2.90;;;;;;;;;;5008043;28;20184;-58
2022/05/23 01:42:26;;;;;;;4.50;2.80;;;;;;;;;;5004015;28;20244;-59
2022/05/23 01:44:52;;;;;;;4.00;2.90;;;;;;;;;;5008101;28;20193;-58
2022/05/23 01:47:18;;;;;;;3.77;3.30;;;;;;;;;;5008175;28;20191;-58
2022/05/23 01:49:44;;;;;;;3.30;2.70;;;;;;;;;;4981263;28;20211;-59
2022/05/23 01:52:10;;;;;;;3.27;2.63;;;;;;;;;;5011905;28;20177;-60
2022/05/23 01:54:36;;;;;;;6.27;2.80;;;;;;;;;;5014391;28;20272;-59
2022/05/23 01:57:03;;;;;;;4.27;3.30;;;;;;;;;;5019257;28;20662;-59
2022/05/23 02:02:13;;;;;;;2.97;2.63;;;;;;;;;;5011635;28;20216;-59
2022/05/23 02:04:39;;;;;;;3.97;2.63;;;;;;;;;;5006741;28;20209;-59
2022/05/23 02:07:05;;;;;;;2.70;2.50;;;;;;;;;;5008235;28;20247;-59
2022/05/23 02:09:32;;;;;;;3.03;2.73;;;;;;;;;;5025197;28;20192;-59
2022/05/23 02:11:58;;;;;;;3.50;2.70;;;;;;;;;;5009213;28;20202;-59
2022/05/23 02:14:24;;;;;;;4.17;2.73;;;;;;;;;;5012542;28;20716;-59
2022/05/23 02:16:50;;;;;;;5.67;2.80;;;;;;;;;;5014093;28;20629;-58
2022/05/23 02:19:16;;;;;;;2.90;2.50;;;;;;;;;;5011641;28;20192;-59
2022/05/23 02:21:42;;;;;;;2.93;2.63;;;;;;;;;;5009998;28;20259;-58
2022/05/23 02:24:08;;;;;;;3.30;2.70;;;;;;;;;;5015426;28;20639;-58
2022/05/23 02:26:34;;;;;;;3.20;2.90;;;;;;;;;;5001720;28;20950;-58
2022/05/23 02:29:00;;;;;;;6.57;2.50;;;;;;;;;;5009661;28;20263;-59
2022/05/23 02:31:26;;;;;;;3.70;2.63;;;;;;;;;;5001081;28;20197;-59
2022/05/23 02:33:52;;;;;;;3.50;2.40;;;;;;;;;;4998791;28;20189;-59
2022/05/23 02:36:18;;;;;;;3.10;2.70;;;;;;;;;;4987490;28;20208;-58
2022/05/23 02:38:44;;;;;;;3.10;2.50;;;;;;;;;;5013632;28;20206;-58
2022/05/23 02:41:10;;;;;;;4.07;2.83;;;;;;;;;;5009836;28;20320;-58
2022/05/23 02:43:36;;;;;;;3.43;2.73;;;;;;;;;;5014257;28;20225;-59
2022/05/23 02:46:02;;;;;;;5.80;2.63;;;;;;;;;;5001730;28;20196;-59
2022/05/23 02:48:28;;;;;;;2.90;2.60;;;;;;;;;;5005923;28;20193;-58
2022/05/23 02:50:54;;;;;;;4.13;2.87;;;;;;;;;;5013284;28;20200;-59
2022/05/23 02:53:20;;;;;;;4.97;2.57;;;;;;;;;;5007441;28;20192;-58
2022/05/23 02:55:46;;;;;;;2.73;2.40;;;;;;;;;;5011422;28;20217;-59
2022/05/23 02:58:11;;;;;;;2.80;2.60;;;;;;;;;;5012187;28;20193;-60
2022/05/23 03:00:38;;;;;;;3.43;2.67;;;;;;;;;;5007765;28;20189;-58
2022/05/23 03:03:04;;;;;;;3.90;2.83;;;;;;;;;;4993446;28;20209;-58
2022/05/23 03:05:31;;;;;;;4.60;2.83;;;;;;;;;;4990086;28;20631;-59
2022/05/23 03:07:57;;;;;;;3.10;2.80;;;;;;;;;;4991250;28;20266;-59
2022/05/23 03:10:23;;;;;;;4.97;2.50;;;;;;;;;;5000681;28;20204;-59
2022/05/23 03:12:49;;;;;;;3.23;2.93;;;;;;;;;;5002103;28;20201;-59
2022/05/23 03:15:15;;;;;;;4.40;2.83;;;;;;;;;;5007193;28;20314;-59
2022/05/23 03:17:41;;;;;;;3.80;2.90;;;;;;;;;;5008789;28;20189;-59
2022/05/23 03:20:07;;;;;;;3.70;2.87;;;;;;;;;;5018292;28;20177;-59
2022/05/23 03:28:02;;;;;;;3.10;2.80;;;;;;;;;;5006602;28;20203;-59
2022/05/23 03:30:29;;;;;;;5.70;2.70;;;;;;;;;;4995504;28;20200;-59
2022/05/23 03:32:57;;;;;;;3.53;2.70;;;;;;;;;;5002151;28;20529;-58
2022/05/23 03:35:23;;;;;;;5.60;2.73;;;;;;;;;;5002557;28;20192;-58
2022/05/23 03:37:49;;;;;;;3.80;3.37;;;;;;;;;;5002517;28;20773;-59
2022/05/23 03:40:15;;;;;;;5.00;2.97;;;;;;;;;;4999102;28;20232;-58
2022/05/23 03:42:41;;;;;;;2.97;2.60;;;;;;;;;;4997898;28;20223;-59
2022/05/23 03:45:07;;;;;;;3.60;2.77;;;;;;;;;;5006285;28;20182;-58
2022/05/23 03:47:33;;;;;;;3.40;3.03;;;;;;;;;;5010632;28;20193;-58
2022/05/23 03:49:59;;;;;;;3.17;2.60;;;;;;;;;;5009796;28;20312;-59
2022/05/23 03:52:25;;;;;;;3.63;3.00;;;;;;;;;;5011368;28;20469;-59
2022/05/23 03:54:51;;;;;;;4.53;2.70;;;;;;;;;;5008636;28;20236;-59
2022/05/23 03:57:17;;;;;;;4.90;3.37;;;;;;;;;;5011629;28;20681;-58
2022/05/23 03:59:45;;;;;;;6.33;2.87;;;;;;;;;;5011007;28;20642;-58
2022/05/23 04:02:11;;;;;;;3.40;2.80;;;;;;;;;;5000345;28;20208;-58
2022/05/23 04:04:37;;;;;;;4.73;3.20;;;;;;;;;;5011135;28;20217;-59
2022/05/23 04:07:04;;;;;;;4.17;2.90;;;;;;;;;;5000295;28;20185;-59
2022/05/23 04:09:30;;;;;;;3.83;2.53;;;;;;;;;;5010624;28;20200;-59
2022/05/23 04:11:56;;;;;;;3.97;3.00;;;;;;;;;;5001249;28;20241;-59
2022/05/23 04:14:23;;;;;;;3.53;2.70;;;;;;;;;;4997087;28;20190;-59
2022/05/23 04:16:49;;;;;;;4.60;2.80;;;;;;;;;;5002004;28;20220;-59
2022/05/23 04:19:15;;;;;;;4.27;2.67;;;;;;;;;;5010347;28;20193;-58
2022/05/23 04:21:41;;;;;;;3.17;2.83;;;;;;;;;;5003629;28;20255;-58
2022/05/23 04:24:08;;;;;;;3.77;2.93;;;;;;;;;;5002705;28;20658;-58
2022/05/23 04:26:34;;;;;;;4.47;2.60;;;;;;;;;;4999231;28;20669;-59
2022/05/23 04:29:00;;;;;;;4.43;2.77;;;;;;;;;;5007213;28;20189;-60
2022/05/23 04:31:26;;;;;;;5.00;2.77;;;;;;;;;;4997780;28;20193;-60
2022/05/23 04:36:38;;;;;;;2.83;2.37;;;;;;;;;;4977819;28;20239;-58
2022/05/23 04:39:04;;;;;;;4.33;2.80;;;;;;;;;;5016473;28;20279;-60
2022/05/23 04:41:30;;;;;;;3.27;2.87;;;;;;;;;;5002566;28;26877;-62
2022/05/23 04:43:56;;;;;;;5.53;2.77;;;;;;;;;;5005733;28;20181;-62
2022/05/23 04:46:22;;;;;;;3.20;2.57;;;;;;;;;;4997479;28;20252;-61
2022/05/23 04:51:33;;;;;;;6.13;3.27;;;;;;;;;;5007555;28;20720;-63
2022/05/23 04:53:59;;;;;;;3.23;2.70;;;;;;;;;;4999842;28;20632;-64
2022/05/23 04:56:26;;;;;;;4.23;2.97;;;;;;;;;;5002254;28;20653;-58
2022/05/23 04:58:52;;;;;;;3.33;2.80;;;;;;;;;;4993675;28;20242;-61
2022/05/23 05:01:17;;;;;;;6.00;3.10;;;;;;;;;;4994038;28;20243;-60
2022/05/23 05:03:43;;;;;;;11.03;2.97;;;;;;;;;;4999189;28;20280;-56
2022/05/23 05:06:10;;;;;;;6.03;2.90;;;;;;;;;;5003593;28;21787;-56
2022/05/23 05:08:35;;;;;;;5.47;2.87;;;;;;;;;;5004876;28;20189;-56
2022/05/23 05:11:05;;;;;;;5.53;3.00;;;;;;;;;;4982952;28;20749;-56
2022/05/23 05:13:35;;;;;;;4.30;3.07;;;;;;;;;;4995089;28;20571;-56
2022/05/23 05:16:02;;;;;;;5.23;3.13;;;;;;;;;;4999554;28;20185;-59
2022/05/23 05:18:28;;;;;;;6.90;3.20;;;;;;;;;;5002218;28;20784;-59
2022/05/23 05:20:54;;;;;;;5.33;3.03;;;;;;;;;;5019263;28;20189;-61
2022/05/23 05:23:20;;;;;;;7.10;2.87;;;;;;;;;;5016421;28;20719;-63
2022/05/23 05:25:46;;;;;;;5.17;3.10;;;;;;;;;;5017898;28;20280;-63
2022/05/23 05:28:12;;;;;;;4.63;2.77;;;;;;;;;;5029759;28;20260;-63
2022/05/23 05:30:40;;;;;;;7.13;2.90;;;;;;;;;;4992196;28;20851;-64
2022/05/23 05:33:07;;;;;;;3.40;2.90;;;;;;;;;;4999535;28;20197;-63
2022/05/23 05:35:34;;;;;;;4.93;3.33;;;;;;;;;;5001963;28;20283;-63
2022/05/23 05:38:03;;;;;;;3.93;2.87;;;;;;;;;;5004187;28;20205;-63
2022/05/23 05:40:30;;;;;;;2.83;2.40;;;;;;;;;;5022268;28;20233;-62
2022/05/23 05:42:57;;;;;;;6.93;3.27;;;;;;;;;;5026224;28;20212;-63
2022/05/23 05:45:31;;;;;;;3.53;2.30;;;;;;;;;;4999549;28;20184;-63
2022/05/23 05:47:57;;;;;;;2.93;2.27;;;;;;;;;;5005376;28;20208;-63
2022/05/23 05:50:25;;;;;;;3.83;2.83;;;;;;;;;;5026774;28;20656;-63
2022/05/23 05:52:52;;;;;;;4.23;2.67;;;;;;;;;;5021921;28;20195;-63
2022/05/23 05:55:18;;;;;;;4.47;2.80;;;;;;;;;;5021312;28;20184;-63
2022/05/23 05:57:44;;;;;;;2.93;2.50;;;;;;;;;;5020166;28;20301;-63
2022/05/23 06:00:10;;;;;;;5.33;2.73;;;;;;;;;;5028376;28;20188;-63
2022/05/23 06:02:37;;;;;;;3.13;2.47;;;;;;;;;;5033229;28;20223;-63
2022/05/23 06:05:03;;;;;;;4.63;2.57;;;;;;;;;;5027044;28;20201;-63
2022/05/23 06:11:23;;;;;;;3.47;2.80;;;;;;;;;;5031704;28;20195;-63
2022/05/23 06:13:18;;;;;;;3.33;2.60;;;;;;;;;;5028346;28;20202;-63
2022/05/23 06:15:45;;;;;;;2.43;2.23;;;;;;;;;;5030657;28;20196;-62
2022/05/23 06:18:11;;;;;;;4.13;2.60;;;;;;;;;;5023390;28;20177;-63
2022/05/23 06:20:37;;;;;;;3.43;2.70;;;;;;;;;;5031261;28;20200;-63
2022/05/23 06:23:03;;;;;;;3.17;2.50;;;;;;;;;;5022517;28;20290;-63
2022/05/23 06:25:29;;;;;;;4.80;2.20;;;;;;;;;;5034616;28;20591;-63
2022/05/23 06:27:55;;;;;;;4.80;2.70;;;;;;;;;;5024883;28;21874;-63
2022/05/23 06:30:21;;;;;;;4.67;2.40;;;;;;;;;;5029345;28;20662;-63
2022/05/23 06:32:47;;;;;;;3.50;2.83;;;;;;;;;;5021027;28;20185;-63
2022/05/23 06:35:13;;;;;;;3.17;2.37;;;;;;;;;;5029607;28;20192;-62
2022/05/23 06:37:39;;;;;;;5.73;2.43;;;;;;;;;;5026087;28;20193;-62
2022/05/23 06:40:06;;;;;;;3.37;2.50;;;;;;;;;;5028291;28;20558;-62
2022/05/23 06:42:32;;;;;;;5.20;2.63;;;;;;;;;;5025234;28;20257;-63
2022/05/23 06:44:58;;;;;;;4.33;3.13;;;;;;;;;;5036199;28;20176;-63
2022/05/23 06:47:24;;;;;;;3.40;2.80;;;;;;;;;;5031269;28;20206;-63
2022/05/23 06:49:50;;;;;;;4.70;3.13;;;;;;;;;;5023979;28;20668;-63
2022/05/23 06:52:16;;;;;;;4.97;2.63;;;;;;;;;;5032679;28;20681;-63
2022/05/23 06:54:42;;;;;;;4.80;2.53;;;;;;;;;;5027695;28;20197;-63
2022/05/23 06:57:08;;;;;;;4.90;2.60;;;;;;;;;;5033603;28;20215;-63
2022/05/23 06:59:34;;;;;;;2.70;2.40;;;;;;;;;;5001611;28;20224;-63
2022/05/23 07:02:01;;;;;;;5.60;2.70;;;;;;;;;;5029117;28;20220;-63
2022/05/23 07:12:19;;;;;;;3.10;2.80;;;;;;;;;;5029494;28;20209;-62
2022/05/23 07:12:42;;;;;;;4.13;2.80;;;;;;;;;;5024284;28;20254;-63
2022/05/23 07:15:08;;;;;;;3.90;2.72;;;;;;;;;;5024286;28;20650;-63
2022/05/23 07:17:34;;;;;;;6.78;2.83;;;;;;;;;;5034111;28;20669;-63
2022/05/23 07:20:01;;;;;;;5.75;2.90;;;;;;;;;;5030305;28;20196;-63
2022/05/23 07:22:27;;;;;;;3.53;2.63;;;;;;;;;;5034579;28;20205;-62
2022/05/23 07:24:53;;;;;;;3.13;2.88;;;;;;;;;;5025794;28;20607;-62
2022/05/23 07:27:23;;;;;;;3.00;2.50;;;;;;;;;;5026681;28;20199;-62
2022/05/23 07:29:49;;;;;;;4.95;2.90;;;;;;;;;;5030408;28;20185;-63
2022/05/23 07:32:15;;;;;;;5.88;2.78;;;;;;;;;;5026119;28;20659;-63
2022/05/23 07:34:42;;;;;;;3.80;2.90;;;;;;;;;;5031923;28;20226;-62
2022/05/23 07:37:09;;;;;;;5.55;3.00;;;;;;;;;;5009628;28;20196;-62
2022/05/23 07:39:37;;;;;;;5.05;3.10;;;;;;;;;;5025414;28;20242;-62
2022/05/23 07:42:05;;;;;;;6.38;3.60;;;;;;;;;;5023124;28;20756;-63
2022/05/23 07:44:31;;;;;;;4.70;2.88;;;;;;;;;;5026311;28;20272;-63
2022/05/23 07:46:57;;;;;;;7.25;3.10;;;;;;;;;;5026255;28;20272;-63
2022/05/23 07:49:23;;;;;;;6.72;4.03;;;;;;;;;;5026888;28;20268;-62
2022/05/23 07:51:49;;;;;;;4.55;2.92;;;;;;;;;;5029384;28;20188;-63
2022/05/23 08:02:30;;;;;;;3.60;2.78;;;;;;;;;;5024239;28;20219;-63
2022/05/23 08:04:56;;;;;;;7.00;2.90;;;;;;;;;;5011291;28;20259;-63
2022/05/23 08:07:23;;;;;;;5.30;3.30;;;;;;;;;;5028559;28;20185;-62
2022/05/23 08:09:49;;;;;;;6.00;3.30;;;;;;;;;;5033560;28;20185;-63
2022/05/23 08:12:15;;;;;;;5.07;2.90;;;;;;;;;;5024503;28;20189;-63
2022/05/23 08:14:41;;;;;;;3.78;2.80;;;;;;;;;;5027609;28;20185;-63
2022/05/23 08:17:07;;;;;;;5.10;3.15;;;;;;;;;;5028474;28;20185;-63
2022/05/23 08:19:33;;;;;;;3.22;2.35;;;;;;;;;;5030280;28;20192;-63
2022/05/23 08:21:58;;;;;;;6.28;3.10;;;;;;;;;;5024315;28;20295;-63
2022/05/23 08:24:24;;;;;;;7.63;3.03;;;;;;;;;;5028341;28;20196;-62
2022/05/23 08:26:50;;;;;;;4.47;2.90;;;;;;;;;;5018543;28;20191;-63
2022/05/23 08:29:16;;;;;;;3.85;3.03;;;;;;;;;;5027283;28;20178;-63
2022/05/23 08:31:42;;;;;;;5.00;2.67;;;;;;;;;;5022742;28;20189;-63
2022/05/23 08:34:09;;;;;;;4.93;2.80;;;;;;;;;;5033754;28;20193;-63
2022/05/23 08:36:34;;;;;;;3.72;2.70;;;;;;;;;;5029861;28;20275;-63
2022/05/23 08:39:00;;;;;;;4.57;3.63;;;;;;;;;;5025835;28;20322;-63
2022/05/23 08:41:29;;;;;;;5.22;3.00;;;;;;;;;;5030937;28;20252;-63
2022/05/23 08:44:05;;;;;;;3.55;3.25;;;;;;;;;;5018907;28;20196;-63
2022/05/23 08:46:55;;;;;;;6.72;2.80;;;;;;;;;;4997857;28;20185;-63
2022/05/23 08:49:50;;;;;;;6.20;3.28;;;;;;;;;;5016678;28;20216;-63
2022/05/23 08:52:23;;;;;;;4.93;2.88;;;;;;;;;;5007457;28;20233;-63
2022/05/23 08:54:51;;;;;;;12.48;3.10;;;;;;;;;;5027587;28;20197;-63
2022/05/23 08:57:19;;;;;;;7.65;2.97;;;;;;;;;;4999874;28;20613;-63
2022/05/23 08:59:46;;;;;;;6.78;3.00;;;;;;;;;;5021389;28;20250;-63
2022/05/23 09:02:14;;;;;;;4.00;2.60;;;;;;;;;;4997943;28;20208;-63
2022/05/23 09:04:44;;;;;;;5.57;3.13;;;;;;;;;;5026088;28;20220;-63
2022/05/23 09:07:19;;;;;;;4.00;2.80;;;;;;;;;;4995804;28;20698;-63
2022/05/23 09:09:45;;;;;;;3.38;2.53;;;;;;;;;;5017437;28;20210;-63
2022/05/23 09:12:11;;;;;;;3.20;2.67;;;;;;;;;;5026772;28;20185;-63
2022/05/23 09:14:38;;;;;;;4.13;2.78;;;;;;;;;;5022704;28;20304;-63
2022/05/23 09:17:04;;;;;;;5.90;2.80;;;;;;;;;;5024396;28;20250;-63
2022/05/23 09:19:38;;;;;;;5.20;2.55;;;;;;;;;;5019457;28;20295;-63
2022/05/23 09:22:15;;;;;;;4.72;2.80;;;;;;;;;;5026241;28;20200;-64
2022/05/23 09:24:45;;;;;;;3.88;2.75;;;;;;;;;;5004310;28;20701;-63
2022/05/23 09:27:17;;;;;;;3.72;2.60;;;;;;;;;;5030295;28;20184;-63
2022/05/23 09:29:43;;;;;;;4.78;2.58;;;;;;;;;;5020988;28;20207;-63
2022/05/23 09:32:10;;;;;;;4.32;2.40;;;;;;;;;;5026022;28;20677;-63
2022/05/23 09:34:36;;;;;;;3.83;2.50;;;;;;;;;;5020829;28;20240;-63
2022/05/23 09:37:02;;;;;;;4.25;2.75;;;;;;;;;;5021024;28;20194;-63
2022/05/23 09:39:30;;;;;;;4.13;2.60;;;;;;;;;;5019944;28;20654;-63
2022/05/23 09:47:46;;;;;;;4.15;2.92;;;;;;;;;;5020078;28;20247;-64
2022/05/23 09:50:31;;;;;;;10.85;3.22;;;;;;;;;;5016580;28;20234;-63
2022/05/23 09:52:59;;;;;;;8.48;2.92;;;;;;;;;;5002212;28;20212;-64
2022/05/23 09:55:32;;;;;;;3.13;2.60;;;;;;;;;;5026977;28;20246;-64
2022/05/23 09:58:01;;;;;;;6.15;3.00;;;;;;;;;;5026508;28;20267;-64
2022/05/23 10:00:32;;;;;;;6.70;2.80;;;;;;;;;;5023818;28;20289;-63
2022/05/23 10:02:59;;;;;;;3.28;2.95;;;;;;;;;;5028882;28;20446;-64
2022/05/23 10:05:33;;;;;;;7.38;2.80;;;;;;;;;;5029993;28;20218;-63
2022/05/23 10:08:22;;;;;;;4.55;3.00;;;;;;;;;;5028088;28;20715;-62
2022/05/23 10:10:55;;;;;;;4.75;2.50;;;;;;;;;;5020514;28;20200;-63
2022/05/23 10:13:30;;;;;;;3.25;2.53;;;;;;;;;;5032547;28;20180;-64
2022/05/23 10:15:57;;;;;;;3.40;2.40;;;;;;;;;;5030463;28;20645;-63
2022/05/23 10:18:24;;;;;;;3.92;2.72;;;;;;;;;;5033661;28;20184;-63
2022/05/23 10:20:50;;;;;;;3.20;2.60;;;;;;;;;;5029211;28;20196;-63
2022/05/23 10:23:21;;;;;;;6.10;3.13;;;;;;;;;;5030523;28;20612;-63
2022/05/23 10:25:56;;;;;;;5.50;2.90;;;;;;;;;;5031580;28;20246;-63
2022/05/23 10:28:26;;;;;;;2.60;2.40;;;;;;;;;;5028800;28;20797;-63
2022/05/23 10:30:56;;;;;;;5.30;3.03;;;;;;;;;;5026104;28;20181;-63
2022/05/23 10:33:22;;;;;;;4.93;3.08;;;;;;;;;;5000087;28;20209;-63
2022/05/23 10:36:05;;;;;;;3.63;2.65;;;;;;;;;;5019982;28;20726;-64
2022/05/23 10:44:22;;;;;;;4.07;1.75;;;;;;;;;;5012427;28;20815;-63
2022/05/23 10:46:50;;;;;;;8.95;2.80;;;;;;;;;;5026818;28;20184;-63
2022/05/23 10:49:45;;;;;;;5.55;2.10;;;;;;;;;;5031920;28;20215;-63
2022/05/23 10:52:41;;;;;;;4.40;2.03;;;;;;;;;;5004925;28;20760;-63
2022/05/23 10:55:13;;;;;;;4.28;2.00;;;;;;;;;;4962621;28;20215;-63
2022/05/23 10:57:59;;;;;;;3.92;1.90;;;;;;;;;;5008822;28;20196;-63
2022/05/23 11:00:27;;;;;;;3.65;1.83;;;;;;;;;;5030384;28;20223;-63
2022/05/23 11:03:13;;;;;;;3.08;2.08;;;;;;;;;;5026229;28;20201;-63
2022/05/23 11:05:45;;;;;;;4.22;1.98;;;;;;;;;;5029062;28;20682;-63
2022/05/23 11:08:31;;;;;;;5.45;2.08;;;;;;;;;;5010791;28;20190;-64
2022/05/23 11:11:00;;;;;;;2.58;1.70;;;;;;;;;;5025422;28;20244;-63
2022/05/23 11:13:45;;;;;;;2.45;1.60;;;;;;;;;;5000087;28;20725;-63
2022/05/23 11:16:15;;;;;;;4.25;2.10;;;;;;;;;;5030386;28;20219;-63
2022/05/23 11:18:41;;;;;;;5.22;2.10;;;;;;;;;;5022719;28;20197;-63
2022/05/23 11:21:10;;;;;;;2.08;1.88;;;;;;;;;;5032168;28;20215;-64
2022/05/23 11:23:41;;;;;;;2.90;2.10;;;;;;;;;;5002986;28;20177;-63
2022/05/23 11:26:09;;;;;;;3.88;1.85;;;;;;;;;;5010584;28;20188;-64
2022/05/23 11:34:18;;;;;;;5.35;2.40;;;;;;;;;;5007872;28;20196;-63
2022/05/23 11:39:47;;;;;;;2.65;2.20;;;;;;;;;;5006280;28;20200;-63
2022/05/23 11:42:14;;;;;;;6.43;2.65;;;;;;;;;;5027777;28;20243;-63
2022/05/23 11:44:44;;;;;;;2.92;2.22;;;;;;;;;;5000185;28;20446;-63
2022/05/23 11:47:21;;;;;;;3.70;2.22;;;;;;;;;;5030366;28;20196;-64
2022/05/23 11:50:07;;;;;;;3.08;2.33;;;;;;;;;;5012057;28;20252;-63
2022/05/23 11:52:34;;;;;;;3.28;2.38;;;;;;;;;;5020459;28;20562;-63
2022/05/23 11:55:00;;;;;;;3.25;2.20;;;;;;;;;;5027645;28;20342;-63
2022/05/23 11:57:31;;;;;;;3.25;2.30;;;;;;;;;;5027287;28;20220;-63
2022/05/23 11:59:57;;;;;;;4.97;2.50;;;;;;;;;;5030659;28;20180;-63
2022/05/23 12:02:24;;;;;;;5.85;2.90;;;;;;;;;;5027836;28;20213;-64
2022/05/23 12:04:51;;;;;;;3.63;2.65;;;;;;;;;;5027857;28;20262;-64
2022/05/23 12:07:32;;;;;;;5.25;2.90;;;;;;;;;;5029177;28;20177;-63
2022/05/23 12:10:17;;;;;;;4.03;2.40;;;;;;;;;;5030219;28;20275;-64
2022/05/23 12:12:44;;;;;;;3.10;2.50;;;;;;;;;;5029780;28;20186;-64
2022/05/23 12:15:11;;;;;;;4.53;2.35;;;;;;;;;;5028282;28;20181;-64
2022/05/23 12:17:37;;;;;;;3.28;2.10;;;;;;;;;;5011420;28;20188;-63
2022/05/23 12:20:08;;;;;;;4.55;2.00;;;;;;;;;;5000344;28;20694;-63
2022/05/23 12:22:38;;;;;;;5.28;2.35;;;;;;;;;;5011176;28;20308;-62
2022/05/23 12:25:10;;;;;;;2.53;2.10;;;;;;;;;;5011136;28;20184;-63
2022/05/23 12:27:45;;;;;;;4.55;2.40;;;;;;;;;;5030744;28;20661;-64
2022/05/23 12:30:17;;;;;;;4.10;2.15;;;;;;;;;;5021116;28;20219;-63
2022/05/23 12:32:47;;;;;;;2.67;2.17;;;;;;;;;;5021701;28;20234;-63
2022/05/23 12:35:14;;;;;;;4.35;2.10;;;;;;;;;;5028378;28;20302;-63
2022/05/23 12:37:50;;;;;;;2.58;2.10;;;;;;;;;;5023833;28;20185;-63
2022/05/23 12:40:15;;;;;;;4.13;2.60;;;;;;;;;;5020186;28;20258;-60
2022/05/23 12:42:42;;;;;;;3.95;2.38;;;;;;;;;;5021985;28;20865;-60
2022/05/23 12:45:08;;;;;;;4.97;2.95;;;;;;;;;;5023143;28;20200;-60
2022/05/23 12:47:34;;;;;;;4.72;2.75;;;;;;;;;;5010292;28;20591;-64
2022/05/23 12:50:12;;;;;;;3.72;2.88;;;;;;;;;;5023745;28;20190;-64
2022/05/23 12:52:38;;;;;;;4.72;2.88;;;;;;;;;;5024052;28;20193;-64
2022/05/23 12:55:07;;;;;;;8.07;3.00;;;;;;;;;;5024226;28;20197;-64
2022/05/23 12:57:33;;;;;;;8.55;3.03;;;;;;;;;;4998442;28;20188;-64
2022/05/23 13:00:19;;;;;;;5.07;3.25;;;;;;;;;;5022052;28;20185;-64
2022/05/23 13:02:45;;;;;;;5.63;3.10;;;;;;;;;;5023194;28;20232;-64
2022/05/23 13:05:13;;;;;;;6.18;3.42;;;;;;;;;;5023297;28;20745;-64
2022/05/23 13:07:48;;;;;;;7.80;3.47;;;;;;;;;;5026140;28;20441;-64
2022/05/23 13:10:27;;;;;;;9.30;3.90;;;;;;;;;;4999427;28;20183;-64
2022/05/23 13:12:55;;;;;;;6.03;3.85;;;;;;;;;;5010069;28;20196;-64
2022/05/23 13:15:22;;;;;;;5.60;3.58;;;;;;;;;;5017086;28;20664;-64
2022/05/23 13:17:48;;;;;;;7.07;3.42;;;;;;;;;;5029471;28;20193;-64
2022/05/23 13:23:00;;;;;;;7.53;3.25;;;;;;;;;;5005027;28;20216;-64
2022/05/23 13:25:27;;;;;;;5.22;3.08;;;;;;;;;;4985924;28;20235;-64
2022/05/23 13:27:58;;;;;;;4.68;3.35;;;;;;;;;;5016647;28;20558;-61
2022/05/23 13:30:26;;;;;;;7.82;3.65;;;;;;;;;;5015821;28;20185;-67
2022/05/23 13:33:02;;;;;;;11.10;3.88;;;;;;;;;;5001274;28;20261;-64
2022/05/23 13:35:28;;;;;;;6.07;3.67;;;;;;;;;;4993623;28;20200;-65
2022/05/23 13:37:54;;;;;;;9.25;3.58;;;;;;;;;;5007361;28;20218;-65
2022/05/23 13:40:27;;;;;;;6.00;4.10;;;;;;;;;;5000144;28;20189;-65
2022/05/23 13:43:18;;;;;;;4.70;3.67;;;;;;;;;;5004970;28;20215;-66
2022/05/23 13:45:44;;;;;;;9.18;4.40;;;;;;;;;;4999779;28;20185;-66
2022/05/23 13:48:12;;;;;;;7.72;4.45;;;;;;;;;;5018175;28;20328;-65
2022/05/23 13:50:42;;;;;;;9.88;4.60;;;;;;;;;;5011421;28;20197;-65
2022/05/23 13:53:14;;;;;;;6.47;4.80;;;;;;;;;;5013152;28;20196;-64
2022/05/23 13:55:41;;;;;;;10.38;4.47;;;;;;;;;;4988593;28;20190;-65
2022/05/23 13:58:12;;;;;;;10.98;4.15;;;;;;;;;;5008447;28;20184;-65
2022/05/23 14:00:39;;;;;;;7.45;3.60;;;;;;;;;;4990702;28;20205;-65
2022/05/23 14:03:08;;;;;;;5.78;4.05;;;;;;;;;;5006512;28;20201;-65
2022/05/23 14:05:34;;;;;;;10.30;4.05;;;;;;;;;;4998885;28;20701;-65
2022/05/23 14:08:00;;;;;;;7.18;4.18;;;;;;;;;;5003402;28;20349;-65
2022/05/23 14:10:27;;;;;;;6.63;3.38;;;;;;;;;;5010813;28;20260;-64
2022/05/23 14:12:53;;;;;;;7.82;4.10;;;;;;;;;;5012226;28;20260;-65
2022/05/23 14:15:20;;;;;;;9.23;4.05;;;;;;;;;;4995700;28;20237;-65
2022/05/23 14:17:48;;;;;;;10.43;4.15;;;;;;;;;;5016647;28;20828;-64
2022/05/23 14:20:22;;;;;;;5.90;4.10;;;;;;;;;;5013153;28;20189;-65
2022/05/23 14:23:06;;;;;;;6.53;3.78;;;;;;;;;;5021381;28;21185;-64
2022/05/23 14:25:42;;;;;;;6.95;4.13;;;;;;;;;;5012430;28;20189;-64
2022/05/23 14:28:09;;;;;;;5.80;4.13;;;;;;;;;;5007565;28;20672;-64
2022/05/23 14:30:37;;;;;;;3.85;3.55;;;;;;;;;;4979240;28;20177;-64
2022/05/23 14:33:07;;;;;;;6.53;4.00;;;;;;;;;;5010265;28;20709;-64
2022/05/23 14:35:35;;;;;;;6.30;3.72;;;;;;;;;;4987124;28;20196;-63
2022/05/23 14:38:01;;;;;;;8.23;3.80;;;;;;;;;;5013993;28;20209;-64
2022/05/23 14:40:37;;;;;;;8.57;3.83;;;;;;;;;;5019422;28;20214;-64
2022/05/23 14:43:05;;;;;;;8.43;3.53;;;;;;;;;;5006911;28;20266;-63
2022/05/23 14:45:31;;;;;;;5.35;3.50;;;;;;;;;;4987485;28;20690;-58
2022/05/23 14:48:06;;;;;;;9.05;4.20;;;;;;;;;;4993049;28;20929;-59
2022/05/23 14:50:37;;;;;;;7.72;4.38;;;;;;;;;;5009911;28;20229;-59
2022/05/23 14:55:48;;;;;;;6.43;4.47;;;;;;;;;;5010114;28;20739;-58
2022/05/23 15:01:22;;;;;;;7.20;4.45;;;;;;;;;;4966936;28;20232;-57
2022/05/23 15:03:49;;;;;;;6.00;4.45;;;;;;;;;;4951079;28;20213;-58
2022/05/23 15:06:16;;;;;;;8.20;4.93;;;;;;;;;;4996420;28;20221;-57
2022/05/23 15:08:42;;;;;;;7.78;5.05;;;;;;;;;;5015084;28;20646;-57
2022/05/23 15:11:11;;;;;;;8.40;4.95;;;;;;;;;;5012571;28;20268;-57
2022/05/23 15:13:37;;;;;;;9.27;5.40;;;;;;;;;;4993786;28;20193;-57
2022/05/23 15:16:04;;;;;;;10.27;4.93;;;;;;;;;;5005737;28;20181;-57
2022/05/23 15:18:34;;;;;;;10.00;4.68;;;;;;;;;;5019872;28;20197;-57
2022/05/23 15:21:00;;;;;;;6.43;4.05;;;;;;;;;;5001096;28;20560;-57
2022/05/23 15:23:26;;;;;;;4.65;3.90;;;;;;;;;;5001878;28;20236;-58
2022/05/23 15:25:52;;;;;;;5.75;3.83;;;;;;;;;;4997147;28;20197;-57
2022/05/23 15:28:18;;;;;;;5.97;3.92;;;;;;;;;;5013306;28;20181;-58
2022/05/23 15:30:44;;;;;;;6.88;4.38;;;;;;;;;;5016941;28;21826;-60
2022/05/23 15:33:10;;;;;;;5.30;4.00;;;;;;;;;;5001712;28;20517;-58
2022/05/23 15:35:36;;;;;;;5.55;4.00;;;;;;;;;;5024689;28;20922;-58
2022/05/23 15:38:02;;;;;;;8.20;4.63;;;;;;;;;;5016924;28;20596;-58
2022/05/23 15:40:30;;;;;;;8.18;4.70;;;;;;;;;;5012998;28;20196;-58
2022/05/23 15:42:56;;;;;;;8.73;4.93;;;;;;;;;;5008058;28;20272;-60
2022/05/23 15:45:22;;;;;;;9.25;4.65;;;;;;;;;;5015283;28;21038;-61
2022/05/23 15:47:48;;;;;;;8.18;4.95;;;;;;;;;;4999956;28;20189;-60
2022/05/23 15:50:16;;;;;;;7.87;4.43;;;;;;;;;;5021666;28;20181;-62
2022/05/23 15:52:42;;;;;;;7.27;5.40;;;;;;;;;;4996960;28;20303;-61